OBBI/BAH METAR and TAF weather

Enter ICAO airport designator
Station Type Date Time Source
OBBI METAR 2022/01/23 11:00 UTC NOAA

OBBI 231100Z 32012KT CAVOK 16/07 Q1019 NOSIG


Station Type Date Time Source
OBBI Decoded METAR 2022/01/23 11:00 UTC NOAA

Bahrain International Airport , Bahrain (OBBI) 26-16N 050-39E 2M
Jan 23, 2022 - 06:00 AM EST / 2022.01.23 1100 UTC
Wind: from the NW (320 degrees) at 14 MPH (12 KT):0
Visibility: greater than 7 mile(s):0
Temperature: 60 F (16 C)
Dew Point: 44 F (7 C)
Relative Humidity: 55%
Pressure (altimeter): 30.09 in. Hg (1019 hPa)
ob: OBBI 231100Z 32012KT CAVOK 16/07 Q1019 NOSIG
cycle: 11

Station Type Date Time Source
OBBI TAF 2022/01/23 12:51 UTC NOAA

TAF TAF OBBI 231100Z 2312/2418 30008KT CAVOK

Example: see airport list